sensor_id;sensor_type;location;lat;lon;timestamp;P1;durP1;ratioP1;P2;durP2;ratioP2
27436;SDS011;14886;51.586;6.722;2023-10-09T00:04:57;20.1;;;8.7;;
27436;SDS011;14886;51.586;6.722;2023-10-09T00:09:58;24.5;;;9.4;;
27436;SDS011;14886;51.586;6.722;2023-10-09T00:14:59;23.0;;;10.2;;
27436;SDS011;14886;51.586;6.722;2023-10-09T00:20:00;31.2;;;12.7;;
27436;SDS011;14886;51.586;6.722;2023-10-09T00:25:02;25.3;;;10.2;;
27436;SDS011;14886;51.586;6.722;2023-10-09T00:30:03;27.0;;;11.1;;
27436;SDS011;14886;51.586;6.722;2023-10-09T00:35:04;22.1;;;11.1;;
27436;SDS011;14886;51.586;6.722;2023-10-09T00:40:06;26.8;;;11.1;;
27436;SDS011;14886;51.586;6.722;2023-10-09T00:45:07;29.6;;;13.0;;
27436;SDS011;14886;51.586;6.722;2023-10-09T00:50:08;26.9;;;12.2;;
27436;SDS011;14886;51.586;6.722;2023-10-09T00:55:10;29.9;;;11.6;;
27436;SDS011;14886;51.586;6.722;2023-10-09T01:00:11;29.0;;;13.6;;
27436;SDS011;14886;51.586;6.722;2023-10-09T01:05:12;31.9;;;12.3;;
27436;SDS011;14886;51.586;6.722;2023-10-09T01:10:13;29.9;;;11.3;;
27436;SDS011;14886;51.586;6.722;2023-10-09T01:15:14;26.2;;;11.3;;
27436;SDS011;14886;51.586;6.722;2023-10-09T01:20:21;26.3;;;11.3;;
27436;SDS011;14886;51.586;6.722;2023-10-09T01:25:17;25.0;;;10.9;;
27436;SDS011;14886;51.586;6.722;2023-10-09T01:30:18;24.8;;;11.1;;
27436;SDS011;14886;51.586;6.722;2023-10-09T01:35:19;25.6;;;10.8;;
27436;SDS011;14886;51.586;6.722;2023-10-09T01:40:21;26.9;;;10.9;;
27436;SDS011;14886;51.586;6.722;2023-10-09T01:45:22;24.4;;;11.4;;
27436;SDS011;14886;51.586;6.722;2023-10-09T01:50:24;26.0;;;10.7;;
27436;SDS011;14886;51.586;6.722;2023-10-09T01:55:25;23.4;;;10.1;;
27436;SDS011;14886;51.586;6.722;2023-10-09T02:00:26;24.4;;;10.8;;
27436;SDS011;14886;51.586;6.722;2023-10-09T02:05:27;24.8;;;11.1;;
27436;SDS011;14886;51.586;6.722;2023-10-09T02:10:28;27.0;;;11.6;;
27436;SDS011;14886;51.586;6.722;2023-10-09T02:15:30;32.0;;;12.7;;
27436;SDS011;14886;51.586;6.722;2023-10-09T02:20:31;23.4;;;12.3;;
27436;SDS011;14886;51.586;6.722;2023-10-09T02:25:32;29.7;;;12.1;;
27436;SDS011;14886;51.586;6.722;2023-10-09T02:30:33;26.2;;;11.7;;
27436;SDS011;14886;51.586;6.722;2023-10-09T02:35:34;30.7;;;12.6;;
27436;SDS011;14886;51.586;6.722;2023-10-09T02:40:36;32.2;;;13.0;;
27436;SDS011;14886;51.586;6.722;2023-10-09T02:45:37;25.4;;;11.7;;
27436;SDS011;14886;51.586;6.722;2023-10-09T02:50:38;25.8;;;11.5;;
27436;SDS011;14886;51.586;6.722;2023-10-09T02:55:39;28.1;;;12.1;;
27436;SDS011;14886;51.586;6.722;2023-10-09T03:00:41;25.3;;;11.6;;
27436;SDS011;14886;51.586;6.722;2023-10-09T03:05:42;30.6;;;12.3;;
27436;SDS011;14886;51.586;6.722;2023-10-09T03:10:43;28.0;;;12.1;;
27436;SDS011;14886;51.586;6.722;2023-10-09T03:15:46;26.3;;;12.8;;
27436;SDS011;14886;51.586;6.722;2023-10-09T03:20:46;27.2;;;11.5;;
27436;SDS011;14886;51.586;6.722;2023-10-09T03:25:47;29.2;;;12.9;;
27436;SDS011;14886;51.586;6.722;2023-10-09T03:30:48;31.8;;;12.9;;
27436;SDS011;14886;51.586;6.722;2023-10-09T03:35:50;25.3;;;12.2;;
27436;SDS011;14886;51.586;6.722;2023-10-09T03:40:51;23.2;;;12.1;;
27436;SDS011;14886;51.586;6.722;2023-10-09T03:45:52;29.0;;;12.0;;
27436;SDS011;14886;51.586;6.722;2023-10-09T03:50:53;24.2;;;11.3;;
27436;SDS011;14886;51.586;6.722;2023-10-09T03:55:55;20.3;;;10.6;;
27436;SDS011;14886;51.586;6.722;2023-10-09T04:00:56;25.4;;;12.3;;
27436;SDS011;14886;51.586;6.722;2023-10-09T04:05:57;21.5;;;11.5;;
27436;SDS011;14886;51.586;6.722;2023-10-09T04:10:59;25.7;;;11.7;;
27436;SDS011;14886;51.586;6.722;2023-10-09T04:16:00;26.5;;;11.0;;
27436;SDS011;14886;51.586;6.722;2023-10-09T04:21:01;22.9;;;10.6;;
27436;SDS011;14886;51.586;6.722;2023-10-09T04:31:04;24.8;;;11.3;;
27436;SDS011;14886;51.586;6.722;2023-10-09T04:36:06;22.9;;;10.6;;
27436;SDS011;14886;51.586;6.722;2023-10-09T04:41:06;21.8;;;9.9;;
27436;SDS011;14886;51.586;6.722;2023-10-09T04:46:08;22.7;;;9.3;;
27436;SDS011;14886;51.586;6.722;2023-10-09T04:51:09;20.1;;;9.0;;
27436;SDS011;14886;51.586;6.722;2023-10-09T04:56:10;19.5;;;9.6;;
27436;SDS011;14886;51.586;6.722;2023-10-09T05:01:12;16.8;;;9.0;;
27436;SDS011;14886;51.586;6.722;2023-10-09T05:06:13;15.7;;;8.0;;
27436;SDS011;14886;51.586;6.722;2023-10-09T05:11:15;20.2;;;8.9;;
27436;SDS011;14886;51.586;6.722;2023-10-09T05:16:16;16.3;;;8.3;;
27436;SDS011;14886;51.586;6.722;2023-10-09T05:21:17;15.4;;;7.5;;
27436;SDS011;14886;51.586;6.722;2023-10-09T05:26:18;14.5;;;7.8;;
27436;SDS011;14886;51.586;6.722;2023-10-09T05:31:19;15.8;;;7.8;;
27436;SDS011;14886;51.586;6.722;2023-10-09T05:36:21;15.9;;;8.4;;
27436;SDS011;14886;51.586;6.722;2023-10-09T05:41:22;13.7;;;7.3;;
27436;SDS011;14886;51.586;6.722;2023-10-09T05:46:24;16.4;;;8.3;;
27436;SDS011;14886;51.586;6.722;2023-10-09T05:51:24;14.0;;;7.2;;
27436;SDS011;14886;51.586;6.722;2023-10-09T05:56:26;14.9;;;7.6;;
27436;SDS011;14886;51.586;6.722;2023-10-09T06:01:27;13.4;;;7.6;;
27436;SDS011;14886;51.586;6.722;2023-10-09T06:06:28;11.8;;;7.2;;
27436;SDS011;14886;51.586;6.722;2023-10-09T06:11:30;17.8;;;8.1;;
27436;SDS011;14886;51.586;6.722;2023-10-09T06:16:31;15.6;;;8.1;;
27436;SDS011;14886;51.586;6.722;2023-10-09T06:21:32;13.8;;;9.0;;
27436;SDS011;14886;51.586;6.722;2023-10-09T06:26:34;15.6;;;8.3;;
27436;SDS011;14886;51.586;6.722;2023-10-09T06:31:35;18.1;;;8.7;;
27436;SDS011;14886;51.586;6.722;2023-10-09T06:36:37;16.6;;;8.4;;
27436;SDS011;14886;51.586;6.722;2023-10-09T06:41:37;15.2;;;7.5;;
27436;SDS011;14886;51.586;6.722;2023-10-09T06:46:39;14.9;;;7.9;;
27436;SDS011;14886;51.586;6.722;2023-10-09T06:51:40;13.6;;;8.0;;
27436;SDS011;14886;51.586;6.722;2023-10-09T06:56:41;20.7;;;9.6;;
27436;SDS011;14886;51.586;6.722;2023-10-09T07:01:43;16.0;;;8.8;;
27436;SDS011;14886;51.586;6.722;2023-10-09T07:06:44;18.8;;;8.7;;
27436;SDS011;14886;51.586;6.722;2023-10-09T07:11:46;14.5;;;8.1;;
27436;SDS011;14886;51.586;6.722;2023-10-09T07:16:47;18.0;;;9.1;;
27436;SDS011;14886;51.586;6.722;2023-10-09T07:21:48;15.2;;;9.5;;
27436;SDS011;14886;51.586;6.722;2023-10-09T07:26:49;15.7;;;9.1;;
27436;SDS011;14886;51.586;6.722;2023-10-09T07:31:51;16.4;;;8.7;;
27436;SDS011;14886;51.586;6.722;2023-10-09T07:36:52;17.9;;;8.5;;
27436;SDS011;14886;51.586;6.722;2023-10-09T07:41:53;18.8;;;8.7;;
27436;SDS011;14886;51.586;6.722;2023-10-09T07:46:55;15.1;;;8.5;;
27436;SDS011;14886;51.586;6.722;2023-10-09T07:56:58;16.4;;;8.9;;
27436;SDS011;14886;51.586;6.722;2023-10-09T08:01:59;17.9;;;8.5;;
27436;SDS011;14886;51.586;6.722;2023-10-09T08:12:01;14.7;;;8.8;;
27436;SDS011;14886;51.586;6.722;2023-10-09T08:17:03;12.3;;;8.1;;
27436;SDS011;14886;51.586;6.722;2023-10-09T08:22:04;15.4;;;8.4;;
27436;SDS011;14886;51.586;6.722;2023-10-09T08:27:05;15.6;;;8.7;;
27436;SDS011;14886;51.586;6.722;2023-10-09T08:32:07;17.9;;;9.4;;
27436;SDS011;14886;51.586;6.722;2023-10-09T08:37:08;14.5;;;8.0;;
27436;SDS011;14886;51.586;6.722;2023-10-09T08:42:10;16.3;;;9.9;;
27436;SDS011;14886;51.586;6.722;2023-10-09T08:47:11;17.0;;;9.6;;
27436;SDS011;14886;51.586;6.722;2023-10-09T08:52:12;16.6;;;9.1;;
27436;SDS011;14886;51.586;6.722;2023-10-09T08:57:14;16.0;;;9.6;;
27436;SDS011;14886;51.586;6.722;2023-10-09T09:02:15;19.1;;;9.1;;
27436;SDS011;14886;51.586;6.722;2023-10-09T09:12:17;13.2;;;7.8;;
27436;SDS011;14886;51.586;6.722;2023-10-09T09:17:22;16.4;;;7.8;;
27436;SDS011;14886;51.586;6.722;2023-10-09T09:22:20;13.6;;;7.4;;
27436;SDS011;14886;51.586;6.722;2023-10-09T09:27:21;14.8;;;8.2;;
27436;SDS011;14886;51.586;6.722;2023-10-09T09:32:26;12.1;;;7.4;;
27436;SDS011;14886;51.586;6.722;2023-10-09T09:37:25;16.8;;;8.0;;
27436;SDS011;14886;51.586;6.722;2023-10-09T09:42:25;14.1;;;8.0;;
27436;SDS011;14886;51.586;6.722;2023-10-09T09:45:42;14.1;;;8.0;;
27436;SDS011;14886;51.586;6.722;2023-10-09T09:47:26;14.7;;;8.3;;
27436;SDS011;14886;51.586;6.722;2023-10-09T09:52:28;15.2;;;7.8;;
27436;SDS011;14886;51.586;6.722;2023-10-09T09:57:29;10.9;;;6.2;;
27436;SDS011;14886;51.586;6.722;2023-10-09T10:02:32;15.3;;;7.9;;
27436;SDS011;14886;51.586;6.722;2023-10-09T10:07:32;12.2;;;6.9;;
27436;SDS011;14886;51.586;6.722;2023-10-09T10:14:52;15.2;;;7.8;;
27436;SDS011;14886;51.586;6.722;2023-10-09T10:17:40;16.3;;;8.8;;
27436;SDS011;14886;51.586;6.722;2023-10-09T10:22:36;15.7;;;8.3;;
27436;SDS011;14886;51.586;6.722;2023-10-09T10:27:37;16.1;;;8.2;;
27436;SDS011;14886;51.586;6.722;2023-10-09T10:37:40;14.7;;;8.8;;
27436;SDS011;14886;51.586;6.722;2023-10-09T10:42:46;18.9;;;10.4;;
27436;SDS011;14886;51.586;6.722;2023-10-09T10:47:42;13.6;;;7.7;;
27436;SDS011;14886;51.586;6.722;2023-10-09T10:52:43;12.1;;;7.0;;
27436;SDS011;14886;51.586;6.722;2023-10-09T10:54:54;12.1;;;7.0;;
27436;SDS011;14886;51.586;6.722;2023-10-09T10:57:45;16.0;;;8.6;;
27436;SDS011;14886;51.586;6.722;2023-10-09T11:02:44;unavailable;;;unavailable;;
27436;SDS011;14886;51.586;6.722;2023-10-09T11:02:57;18.1;;;8.6;;
27436;SDS011;14886;51.586;6.722;2023-10-09T11:07:47;14.6;;;8.6;;
27436;SDS011;14886;51.586;6.722;2023-10-09T11:12:49;17.3;;;8.9;;
27436;SDS011;14886;51.586;6.722;2023-10-09T11:17:57;13.2;;;7.1;;
27436;SDS011;14886;51.586;6.722;2023-10-09T11:22:52;13.0;;;7.9;;
27436;SDS011;14886;51.586;6.722;2023-10-09T11:27:53;13.8;;;8.3;;
27436;SDS011;14886;51.586;6.722;2023-10-09T11:33:03;15.6;;;9.0;;
27436;SDS011;14886;51.586;6.722;2023-10-09T11:37:56;15.7;;;8.7;;
27436;SDS011;14886;51.586;6.722;2023-10-09T11:42:59;15.9;;;9.6;;
27436;SDS011;14886;51.586;6.722;2023-10-09T11:48:06;16.6;;;8.9;;
27436;SDS011;14886;51.586;6.722;2023-10-09T11:52:59;19.3;;;9.3;;
27436;SDS011;14886;51.586;6.722;2023-10-09T11:58:01;17.2;;;9.1;;
27436;SDS011;14886;51.586;6.722;2023-10-09T12:03:03;15.5;;;8.1;;
27436;SDS011;14886;51.586;6.722;2023-10-09T12:08:04;14.7;;;8.2;;
27436;SDS011;14886;51.586;6.722;2023-10-09T12:13:05;16.9;;;8.2;;
27436;SDS011;14886;51.586;6.722;2023-10-09T12:18:06;11.7;;;6.9;;
27436;SDS011;14886;51.586;6.722;2023-10-09T12:23:07;14.9;;;7.8;;
27436;SDS011;14886;51.586;6.722;2023-10-09T12:28:09;14.6;;;8.7;;
27436;SDS011;14886;51.586;6.722;2023-10-09T12:33:10;18.2;;;8.9;;
27436;SDS011;14886;51.586;6.722;2023-10-09T12:38:12;15.1;;;7.3;;
27436;SDS011;14886;51.586;6.722;2023-10-09T12:43:13;14.7;;;7.4;;
27436;SDS011;14886;51.586;6.722;2023-10-09T12:48:14;16.2;;;8.0;;
27436;SDS011;14886;51.586;6.722;2023-10-09T12:53:16;14.8;;;7.8;;
27436;SDS011;14886;51.586;6.722;2023-10-09T12:58:17;14.4;;;8.2;;
27436;SDS011;14886;51.586;6.722;2023-10-09T13:03:18;14.9;;;8.3;;
27436;SDS011;14886;51.586;6.722;2023-10-09T13:08:20;16.2;;;8.7;;
27436;SDS011;14886;51.586;6.722;2023-10-09T13:13:21;14.9;;;7.9;;
27436;SDS011;14886;51.586;6.722;2023-10-09T13:18:23;15.0;;;8.0;;
27436;SDS011;14886;51.586;6.722;2023-10-09T13:23:24;16.4;;;8.4;;
27436;SDS011;14886;51.586;6.722;2023-10-09T13:28:25;16.2;;;7.6;;
27436;SDS011;14886;51.586;6.722;2023-10-09T13:38:28;15.8;;;8.6;;
27436;SDS011;14886;51.586;6.722;2023-10-09T13:43:29;15.4;;;8.7;;
27436;SDS011;14886;51.586;6.722;2023-10-09T13:48:30;14.5;;;8.7;;
27436;SDS011;14886;51.586;6.722;2023-10-09T13:53:32;13.5;;;8.2;;
27436;SDS011;14886;51.586;6.722;2023-10-09T13:58:33;17.6;;;8.3;;
27436;SDS011;14886;51.586;6.722;2023-10-09T14:03:34;15.0;;;8.0;;
27436;SDS011;14886;51.586;6.722;2023-10-09T14:08:36;19.8;;;8.4;;
27436;SDS011;14886;51.586;6.722;2023-10-09T14:13:37;17.7;;;8.9;;
27436;SDS011;14886;51.586;6.722;2023-10-09T14:18:38;18.0;;;9.5;;
27436;SDS011;14886;51.586;6.722;2023-10-09T14:23:40;16.3;;;8.9;;
27436;SDS011;14886;51.586;6.722;2023-10-09T14:28:41;15.3;;;9.2;;
27436;SDS011;14886;51.586;6.722;2023-10-09T14:33:42;16.3;;;9.1;;
27436;SDS011;14886;51.586;6.722;2023-10-09T14:38:44;20.8;;;9.1;;
27436;SDS011;14886;51.586;6.722;2023-10-09T14:43:45;15.9;;;8.4;;
27436;SDS011;14886;51.586;6.722;2023-10-09T14:48:47;17.7;;;10.4;;
27436;SDS011;14886;51.586;6.722;2023-10-09T14:53:48;15.9;;;9.5;;
27436;SDS011;14886;51.586;6.722;2023-10-09T14:58:49;18.7;;;9.8;;
27436;SDS011;14886;51.586;6.722;2023-10-09T15:03:50;17.9;;;10.9;;
27436;SDS011;14886;51.586;6.722;2023-10-09T15:08:52;16.8;;;9.6;;
27436;SDS011;14886;51.586;6.722;2023-10-09T15:13:54;17.7;;;8.9;;
27436;SDS011;14886;51.586;6.722;2023-10-09T15:18:55;19.5;;;10.3;;
27436;SDS011;14886;51.586;6.722;2023-10-09T15:23:56;19.4;;;10.2;;
27436;SDS011;14886;51.586;6.722;2023-10-09T15:28:59;18.9;;;10.5;;
27436;SDS011;14886;51.586;6.722;2023-10-09T15:33:58;16.4;;;9.8;;
27436;SDS011;14886;51.586;6.722;2023-10-09T15:39:00;17.7;;;9.6;;
27436;SDS011;14886;51.586;6.722;2023-10-09T15:44:01;20.0;;;9.9;;
27436;SDS011;14886;51.586;6.722;2023-10-09T15:49:02;16.8;;;10.3;;
27436;SDS011;14886;51.586;6.722;2023-10-09T15:54:04;17.1;;;9.8;;
27436;SDS011;14886;51.586;6.722;2023-10-09T15:59:05;15.7;;;8.8;;
27436;SDS011;14886;51.586;6.722;2023-10-09T16:04:06;18.2;;;10.4;;
27436;SDS011;14886;51.586;6.722;2023-10-09T16:09:08;18.5;;;10.5;;
27436;SDS011;14886;51.586;6.722;2023-10-09T16:14:09;20.0;;;10.0;;
27436;SDS011;14886;51.586;6.722;2023-10-09T16:19:11;21.0;;;9.7;;
27436;SDS011;14886;51.586;6.722;2023-10-09T16:24:12;18.0;;;9.9;;
27436;SDS011;14886;51.586;6.722;2023-10-09T16:29:13;21.4;;;10.2;;
27436;SDS011;14886;51.586;6.722;2023-10-09T16:34:14;20.7;;;10.6;;
27436;SDS011;14886;51.586;6.722;2023-10-09T16:39:16;20.9;;;11.4;;
27436;SDS011;14886;51.586;6.722;2023-10-09T16:44:17;19.5;;;10.6;;
27436;SDS011;14886;51.586;6.722;2023-10-09T16:49:18;19.6;;;9.6;;
27436;SDS011;14886;51.586;6.722;2023-10-09T16:54:20;18.2;;;9.2;;
27436;SDS011;14886;51.586;6.722;2023-10-09T16:59:21;19.5;;;9.8;;
27436;SDS011;14886;51.586;6.722;2023-10-09T17:04:22;18.9;;;10.0;;
27436;SDS011;14886;51.586;6.722;2023-10-09T17:09:24;16.0;;;8.9;;
27436;SDS011;14886;51.586;6.722;2023-10-09T17:14:25;19.9;;;9.5;;
27436;SDS011;14886;51.586;6.722;2023-10-09T17:19:26;16.0;;;8.5;;
27436;SDS011;14886;51.586;6.722;2023-10-09T17:24:28;15.8;;;8.7;;
27436;SDS011;14886;51.586;6.722;2023-10-09T17:29:29;17.4;;;9.3;;
27436;SDS011;14886;51.586;6.722;2023-10-09T17:34:30;16.2;;;8.3;;
27436;SDS011;14886;51.586;6.722;2023-10-09T17:39:32;14.8;;;8.4;;
27436;SDS011;14886;51.586;6.722;2023-10-09T17:44:33;12.0;;;7.3;;
27436;SDS011;14886;51.586;6.722;2023-10-09T17:49:34;14.3;;;7.9;;
27436;SDS011;14886;51.586;6.722;2023-10-09T17:54:37;16.5;;;8.5;;
27436;SDS011;14886;51.586;6.722;2023-10-09T17:59:37;15.6;;;7.3;;
27436;SDS011;14886;51.586;6.722;2023-10-09T18:04:38;13.5;;;6.9;;
27436;SDS011;14886;51.586;6.722;2023-10-09T18:09:40;12.8;;;7.1;;
27436;SDS011;14886;51.586;6.722;2023-10-09T18:14:41;11.7;;;6.5;;
27436;SDS011;14886;51.586;6.722;2023-10-09T18:19:42;13.6;;;7.4;;
27436;SDS011;14886;51.586;6.722;2023-10-09T18:24:43;15.7;;;7.4;;
27436;SDS011;14886;51.586;6.722;2023-10-09T18:29:45;13.3;;;6.5;;
27436;SDS011;14886;51.586;6.722;2023-10-09T18:34:46;13.2;;;6.9;;
27436;SDS011;14886;51.586;6.722;2023-10-09T18:39:47;12.1;;;6.3;;
27436;SDS011;14886;51.586;6.722;2023-10-09T18:44:49;15.3;;;6.9;;
27436;SDS011;14886;51.586;6.722;2023-10-09T18:49:50;12.7;;;6.5;;
27436;SDS011;14886;51.586;6.722;2023-10-09T18:54:51;14.0;;;7.1;;
27436;SDS011;14886;51.586;6.722;2023-10-09T18:59:52;15.1;;;6.8;;
27436;SDS011;14886;51.586;6.722;2023-10-09T19:04:54;11.7;;;6.7;;
27436;SDS011;14886;51.586;6.722;2023-10-09T19:09:55;11.6;;;6.1;;
27436;SDS011;14886;51.586;6.722;2023-10-09T19:14:56;9.7;;;6.2;;
27436;SDS011;14886;51.586;6.722;2023-10-09T19:19:57;13.8;;;6.9;;
27436;SDS011;14886;51.586;6.722;2023-10-09T19:24:59;11.9;;;6.5;;
27436;SDS011;14886;51.586;6.722;2023-10-09T19:35:01;12.8;;;7.4;;
27436;SDS011;14886;51.586;6.722;2023-10-09T19:40:03;13.6;;;7.1;;
27436;SDS011;14886;51.586;6.722;2023-10-09T19:45:04;14.7;;;7.5;;
27436;SDS011;14886;51.586;6.722;2023-10-09T19:50:06;12.5;;;6.7;;
27436;SDS011;14886;51.586;6.722;2023-10-09T19:55:07;11.8;;;6.9;;
27436;SDS011;14886;51.586;6.722;2023-10-09T20:00:09;12.6;;;7.0;;
27436;SDS011;14886;51.586;6.722;2023-10-09T20:05:09;15.6;;;6.9;;
27436;SDS011;14886;51.586;6.722;2023-10-09T20:10:10;11.6;;;6.9;;
27436;SDS011;14886;51.586;6.722;2023-10-09T20:15:12;12.3;;;7.7;;
27436;SDS011;14886;51.586;6.722;2023-10-09T20:20:13;14.1;;;7.2;;
27436;SDS011;14886;51.586;6.722;2023-10-09T20:25:14;15.7;;;7.7;;
27436;SDS011;14886;51.586;6.722;2023-10-09T20:30:16;13.5;;;6.7;;
27436;SDS011;14886;51.586;6.722;2023-10-09T20:35:17;16.5;;;7.3;;
27436;SDS011;14886;51.586;6.722;2023-10-09T20:40:18;13.4;;;6.8;;
27436;SDS011;14886;51.586;6.722;2023-10-09T20:45:19;14.6;;;6.7;;
27436;SDS011;14886;51.586;6.722;2023-10-09T20:50:21;14.9;;;7.3;;
27436;SDS011;14886;51.586;6.722;2023-10-09T20:55:22;17.1;;;8.0;;
27436;SDS011;14886;51.586;6.722;2023-10-09T21:00:24;16.2;;;7.6;;
27436;SDS011;14886;51.586;6.722;2023-10-09T21:05:24;16.1;;;8.4;;
27436;SDS011;14886;51.586;6.722;2023-10-09T21:10:26;17.0;;;9.4;;
27436;SDS011;14886;51.586;6.722;2023-10-09T21:15:27;14.8;;;8.6;;
27436;SDS011;14886;51.586;6.722;2023-10-09T21:20:29;21.9;;;9.6;;
27436;SDS011;14886;51.586;6.722;2023-10-09T21:25:30;18.0;;;10.1;;
27436;SDS011;14886;51.586;6.722;2023-10-09T21:30:31;26.4;;;12.7;;
27436;SDS011;14886;51.586;6.722;2023-10-09T21:35:33;26.3;;;12.5;;
27436;SDS011;14886;51.586;6.722;2023-10-09T21:40:34;23.4;;;13.3;;
27436;SDS011;14886;51.586;6.722;2023-10-09T21:45:36;21.7;;;12.1;;
27436;SDS011;14886;51.586;6.722;2023-10-09T21:50:37;22.8;;;12.1;;
27436;SDS011;14886;51.586;6.722;2023-10-09T21:55:38;23.4;;;12.9;;
27436;SDS011;14886;51.586;6.722;2023-10-09T22:00:39;20.0;;;12.4;;
27436;SDS011;14886;51.586;6.722;2023-10-09T22:05:41;21.0;;;12.4;;
27436;SDS011;14886;51.586;6.722;2023-10-09T22:10:42;22.9;;;12.9;;
27436;SDS011;14886;51.586;6.722;2023-10-09T22:15:43;26.2;;;12.8;;
27436;SDS011;14886;51.586;6.722;2023-10-09T22:20:45;21.0;;;11.9;;
27436;SDS011;14886;51.586;6.722;2023-10-09T22:25:47;21.8;;;12.1;;
27436;SDS011;14886;51.586;6.722;2023-10-09T22:30:47;20.1;;;12.5;;
27436;SDS011;14886;51.586;6.722;2023-10-09T22:35:49;26.0;;;12.3;;
27436;SDS011;14886;51.586;6.722;2023-10-09T22:40:50;20.3;;;12.3;;
27436;SDS011;14886;51.586;6.722;2023-10-09T22:45:52;21.7;;;12.1;;
27436;SDS011;14886;51.586;6.722;2023-10-09T22:50:53;26.5;;;13.6;;
27436;SDS011;14886;51.586;6.722;2023-10-09T22:55:54;22.7;;;13.1;;
27436;SDS011;14886;51.586;6.722;2023-10-09T23:00:56;20.8;;;12.3;;
27436;SDS011;14886;51.586;6.722;2023-10-09T23:05:57;24.6;;;12.5;;
27436;SDS011;14886;51.586;6.722;2023-10-09T23:10:58;21.7;;;12.5;;
27436;SDS011;14886;51.586;6.722;2023-10-09T23:15:59;22.7;;;12.6;;
27436;SDS011;14886;51.586;6.722;2023-10-09T23:21:01;26.5;;;12.5;;
27436;SDS011;14886;51.586;6.722;2023-10-09T23:26:02;22.4;;;12.1;;
27436;SDS011;14886;51.586;6.722;2023-10-09T23:31:03;23.0;;;12.9;;
27436;SDS011;14886;51.586;6.722;2023-10-09T23:36:05;21.2;;;12.8;;
27436;SDS011;14886;51.586;6.722;2023-10-09T23:41:06;21.9;;;13.5;;
27436;SDS011;14886;51.586;6.722;2023-10-09T23:46:07;24.3;;;14.2;;
27436;SDS011;14886;51.586;6.722;2023-10-09T23:51:09;21.7;;;13.9;;
27436;SDS011;14886;51.586;6.722;2023-10-09T23:56:10;21.8;;;12.7;;
